sensor_id;sensor_type;location;lat;lon;timestamp;pressure;altitude;pressure_sealevel;temperature;humidity
60246;BME280;46107;53.356;-1.524;2024-01-07T00:01:55;99637.68;;;6.74;54.44
60246;BME280;46107;53.356;-1.524;2024-01-07T00:04:23;99642.56;;;6.29;54.75
60246;BME280;46107;53.356;-1.524;2024-01-07T00:06:52;99645.57;;;6.57;54.23
60246;BME280;46107;53.356;-1.524;2024-01-07T00:09:19;99644.83;;;6.44;55.21
60246;BME280;46107;53.356;-1.524;2024-01-07T00:11:46;99647.40;;;5.66;57.42
60246;BME280;46107;53.356;-1.524;2024-01-07T00:14:15;99651.11;;;5.61;57.54
60246;BME280;46107;53.356;-1.524;2024-01-07T00:16:43;99651.81;;;5.80;57.20
60246;BME280;46107;53.356;-1.524;2024-01-07T00:19:10;99656.84;;;5.49;57.48
60246;BME280;46107;53.356;-1.524;2024-01-07T00:21:37;99661.41;;;6.39;56.14
60246;BME280;46107;53.356;-1.524;2024-01-07T00:24:05;99664.71;;;5.66;57.73
60246;BME280;46107;53.356;-1.524;2024-01-07T00:26:32;99665.16;;;5.99;55.99
60246;BME280;46107;53.356;-1.524;2024-01-07T00:29:00;99667.53;;;6.23;56.26
60246;BME280;46107;53.356;-1.524;2024-01-07T00:31:27;99666.36;;;5.54;58.22
60246;BME280;46107;53.356;-1.524;2024-01-07T00:33:55;99667.80;;;5.79;57.22
60246;BME280;46107;53.356;-1.524;2024-01-07T00:36:22;99667.62;;;6.46;55.39
60246;BME280;46107;53.356;-1.524;2024-01-07T00:38:49;99667.93;;;6.08;57.27
60246;BME280;46107;53.356;-1.524;2024-01-07T00:41:17;99670.48;;;6.93;54.84
60246;BME280;46107;53.356;-1.524;2024-01-07T00:43:44;99675.04;;;6.42;55.96
60246;BME280;46107;53.356;-1.524;2024-01-07T00:46:16;99676.05;;;6.07;55.90
60246;BME280;46107;53.356;-1.524;2024-01-07T00:48:49;99678.18;;;6.80;53.88
60246;BME280;46107;53.356;-1.524;2024-01-07T00:51:16;99682.29;;;6.79;54.29
60246;BME280;46107;53.356;-1.524;2024-01-07T00:53:43;99684.63;;;7.00;54.56
60246;BME280;46107;53.356;-1.524;2024-01-07T00:56:16;99687.55;;;6.41;54.99
60246;BME280;46107;53.356;-1.524;2024-01-07T00:58:43;99686.79;;;6.83;53.95
60246;BME280;46107;53.356;-1.524;2024-01-07T01:01:11;99691.77;;;6.80;54.66
60246;BME280;46107;53.356;-1.524;2024-01-07T01:03:39;99690.83;;;7.33;53.34
60246;BME280;46107;53.356;-1.524;2024-01-07T01:06:06;99695.81;;;6.99;53.83
60246;BME280;46107;53.356;-1.524;2024-01-07T01:08:34;99698.10;;;5.84;56.39
60246;BME280;46107;53.356;-1.524;2024-01-07T01:11:01;99703.55;;;4.09;60.31
60246;BME280;46107;53.356;-1.524;2024-01-07T01:13:29;99709.65;;;5.10;60.25
60246;BME280;46107;53.356;-1.524;2024-01-07T01:15:57;99709.04;;;4.87;59.85
60246;BME280;46107;53.356;-1.524;2024-01-07T01:18:24;99706.54;;;5.71;57.94
60246;BME280;46107;53.356;-1.524;2024-01-07T01:20:50;99708.31;;;5.16;58.97
60246;BME280;46107;53.356;-1.524;2024-01-07T01:23:18;99711.67;;;5.55;57.16
60246;BME280;46107;53.356;-1.524;2024-01-07T01:25:45;99716.21;;;5.12;58.61
60246;BME280;46107;53.356;-1.524;2024-01-07T01:28:12;99711.80;;;6.08;56.46
60246;BME280;46107;53.356;-1.524;2024-01-07T01:30:39;99718.98;;;5.42;57.50
60246;BME280;46107;53.356;-1.524;2024-01-07T01:33:06;99720.93;;;4.81;59.14
60246;BME280;46107;53.356;-1.524;2024-01-07T01:35:33;99720.27;;;4.36;61.82
60246;BME280;46107;53.356;-1.524;2024-01-07T01:38:02;99722.11;;;5.69;58.65
60246;BME280;46107;53.356;-1.524;2024-01-07T01:40:31;99719.39;;;6.16;57.40
60246;BME280;46107;53.356;-1.524;2024-01-07T01:42:58;99717.81;;;6.29;55.78
60246;BME280;46107;53.356;-1.524;2024-01-07T01:45:25;99721.02;;;5.94;55.54
60246;BME280;46107;53.356;-1.524;2024-01-07T01:47:53;99723.77;;;5.76;56.78
60246;BME280;46107;53.356;-1.524;2024-01-07T01:50:21;99725.34;;;6.19;54.82
60246;BME280;46107;53.356;-1.524;2024-01-07T01:52:49;99725.02;;;6.66;54.74
60246;BME280;46107;53.356;-1.524;2024-01-07T01:55:16;99729.75;;;5.98;54.37
60246;BME280;46107;53.356;-1.524;2024-01-07T01:57:45;99733.91;;;6.01;54.41
60246;BME280;46107;53.356;-1.524;2024-01-07T02:00:13;99733.99;;;6.40;54.34
60246;BME280;46107;53.356;-1.524;2024-01-07T02:02:46;99739.15;;;7.03;53.29
60246;BME280;46107;53.356;-1.524;2024-01-07T02:05:13;99737.41;;;6.73;53.37
60246;BME280;46107;53.356;-1.524;2024-01-07T02:07:41;99740.59;;;6.64;53.54
60246;BME280;46107;53.356;-1.524;2024-01-07T02:10:08;99748.31;;;6.68;53.21
60246;BME280;46107;53.356;-1.524;2024-01-07T02:12:35;99758.41;;;4.87;56.55
60246;BME280;46107;53.356;-1.524;2024-01-07T02:15:03;99761.09;;;5.25;57.26
60246;BME280;46107;53.356;-1.524;2024-01-07T02:17:31;99758.97;;;5.95;56.69
60246;BME280;46107;53.356;-1.524;2024-01-07T02:20:01;99759.77;;;6.49;54.17
60246;BME280;46107;53.356;-1.524;2024-01-07T02:22:28;99767.19;;;5.31;55.90
60246;BME280;46107;53.356;-1.524;2024-01-07T02:24:55;99763.68;;;6.51;54.11
60246;BME280;46107;53.356;-1.524;2024-01-07T02:27:22;99770.89;;;6.03;56.37
60246;BME280;46107;53.356;-1.524;2024-01-07T02:29:50;99770.68;;;6.10;55.32
60246;BME280;46107;53.356;-1.524;2024-01-07T02:32:17;99771.00;;;6.40;55.54
60246;BME280;46107;53.356;-1.524;2024-01-07T02:34:45;99774.30;;;6.10;55.60
60246;BME280;46107;53.356;-1.524;2024-01-07T02:37:13;99785.18;;;5.84;56.40
60246;BME280;46107;53.356;-1.524;2024-01-07T02:39:40;99776.89;;;6.36;55.80
60246;BME280;46107;53.356;-1.524;2024-01-07T02:42:08;99778.58;;;6.43;55.36
60246;BME280;46107;53.356;-1.524;2024-01-07T02:44:35;99780.34;;;6.20;56.17
60246;BME280;46107;53.356;-1.524;2024-01-07T02:47:03;99788.00;;;6.20;55.20
60246;BME280;46107;53.356;-1.524;2024-01-07T02:49:30;99795.17;;;6.14;56.21
60246;BME280;46107;53.356;-1.524;2024-01-07T02:52:00;99795.50;;;5.56;56.76
60246;BME280;46107;53.356;-1.524;2024-01-07T02:54:28;99798.10;;;6.04;55.96
60246;BME280;46107;53.356;-1.524;2024-01-07T02:56:56;99799.98;;;5.51;56.93
60246;BME280;46107;53.356;-1.524;2024-01-07T02:59:24;99800.19;;;5.76;56.03
60246;BME280;46107;53.356;-1.524;2024-01-07T03:01:51;99800.41;;;5.19;56.57
60246;BME280;46107;53.356;-1.524;2024-01-07T03:04:18;99797.87;;;6.29;54.82
60246;BME280;46107;53.356;-1.524;2024-01-07T03:06:46;99798.50;;;5.02;56.95
60246;BME280;46107;53.356;-1.524;2024-01-07T03:09:13;99802.58;;;5.37;55.95
60246;BME280;46107;53.356;-1.524;2024-01-07T03:11:41;99803.91;;;5.64;56.46
60246;BME280;46107;53.356;-1.524;2024-01-07T03:14:08;99808.48;;;5.30;57.86
60246;BME280;46107;53.356;-1.524;2024-01-07T03:16:36;99808.48;;;5.93;55.52
60246;BME280;46107;53.356;-1.524;2024-01-07T03:19:03;99812.03;;;5.24;57.80
60246;BME280;46107;53.356;-1.524;2024-01-07T03:21:30;99810.39;;;6.44;54.29
60246;BME280;46107;53.356;-1.524;2024-01-07T03:23:58;99822.41;;;5.89;56.20
60246;BME280;46107;53.356;-1.524;2024-01-07T03:26:29;99824.52;;;5.92;56.62
60246;BME280;46107;53.356;-1.524;2024-01-07T03:28:56;99830.89;;;5.20;57.77
60246;BME280;46107;53.356;-1.524;2024-01-07T03:31:23;99834.68;;;6.11;55.40
60246;BME280;46107;53.356;-1.524;2024-01-07T03:33:51;99835.56;;;5.83;55.57
60246;BME280;46107;53.356;-1.524;2024-01-07T03:36:19;99833.97;;;5.70;57.43
60246;BME280;46107;53.356;-1.524;2024-01-07T03:38:46;99834.99;;;6.74;55.02
60246;BME280;46107;53.356;-1.524;2024-01-07T03:41:16;99833.51;;;5.15;57.36
60246;BME280;46107;53.356;-1.524;2024-01-07T03:43:44;99834.72;;;5.59;56.67
60246;BME280;46107;53.356;-1.524;2024-01-07T03:46:10;99834.45;;;5.48;57.17
60246;BME280;46107;53.356;-1.524;2024-01-07T03:48:38;99833.34;;;6.08;56.00
60246;BME280;46107;53.356;-1.524;2024-01-07T03:51:05;99833.59;;;5.43;55.34
60246;BME280;46107;53.356;-1.524;2024-01-07T03:53:32;99833.28;;;5.71;56.71
60246;BME280;46107;53.356;-1.524;2024-01-07T03:56:00;99836.80;;;5.85;55.42
60246;BME280;46107;53.356;-1.524;2024-01-07T03:58:28;99839.73;;;5.72;55.40
60246;BME280;46107;53.356;-1.524;2024-01-07T04:00:55;99840.60;;;5.45;55.16
60246;BME280;46107;53.356;-1.524;2024-01-07T04:03:23;99846.83;;;5.45;56.60
60246;BME280;46107;53.356;-1.524;2024-01-07T04:05:56;99844.21;;;5.10;56.82
60246;BME280;46107;53.356;-1.524;2024-01-07T04:08:23;99846.85;;;5.57;56.07
60246;BME280;46107;53.356;-1.524;2024-01-07T04:10:51;99843.02;;;5.20;58.05
60246;BME280;46107;53.356;-1.524;2024-01-07T04:13:18;99849.11;;;5.76;54.75
60246;BME280;46107;53.356;-1.524;2024-01-07T04:15:46;99855.80;;;5.36;54.65
60246;BME280;46107;53.356;-1.524;2024-01-07T04:18:13;99852.29;;;5.69;54.79
60246;BME280;46107;53.356;-1.524;2024-01-07T04:20:41;99862.92;;;5.64;55.87
60246;BME280;46107;53.356;-1.524;2024-01-07T04:23:08;99865.01;;;5.74;55.06
60246;BME280;46107;53.356;-1.524;2024-01-07T04:25:35;99868.83;;;6.15;54.82
60246;BME280;46107;53.356;-1.524;2024-01-07T04:28:03;99868.65;;;5.62;55.97
60246;BME280;46107;53.356;-1.524;2024-01-07T04:30:30;99868.48;;;5.56;55.08
60246;BME280;46107;53.356;-1.524;2024-01-07T04:32:58;99869.82;;;5.94;54.44
60246;BME280;46107;53.356;-1.524;2024-01-07T04:35:25;99870.22;;;6.26;54.54
60246;BME280;46107;53.356;-1.524;2024-01-07T04:37:53;99870.25;;;6.66;53.62
60246;BME280;46107;53.356;-1.524;2024-01-07T04:40:20;99870.14;;;6.31;53.87
60246;BME280;46107;53.356;-1.524;2024-01-07T04:42:47;99865.61;;;5.93;54.78
60246;BME280;46107;53.356;-1.524;2024-01-07T04:45:15;99870.27;;;5.47;56.09
60246;BME280;46107;53.356;-1.524;2024-01-07T04:47:42;99872.11;;;5.71;54.47
60246;BME280;46107;53.356;-1.524;2024-01-07T04:50:09;99875.88;;;5.39;55.48
60246;BME280;46107;53.356;-1.524;2024-01-07T04:52:36;99874.64;;;5.01;55.12
60246;BME280;46107;53.356;-1.524;2024-01-07T04:55:04;99874.38;;;5.43;55.27
60246;BME280;46107;53.356;-1.524;2024-01-07T04:57:32;99880.89;;;4.34;58.36
60246;BME280;46107;53.356;-1.524;2024-01-07T05:00:01;99883.44;;;5.75;55.31
60246;BME280;46107;53.356;-1.524;2024-01-07T05:02:29;99886.94;;;3.86;60.00
60246;BME280;46107;53.356;-1.524;2024-01-07T05:04:56;99882.50;;;5.04;56.33
60246;BME280;46107;53.356;-1.524;2024-01-07T05:07:24;99879.11;;;4.92;57.84
60246;BME280;46107;53.356;-1.524;2024-01-07T05:09:52;99885.56;;;4.55;57.90
60246;BME280;46107;53.356;-1.524;2024-01-07T05:12:19;99887.63;;;4.32;59.26
60246;BME280;46107;53.356;-1.524;2024-01-07T05:14:47;99884.17;;;4.91;57.17
60246;BME280;46107;53.356;-1.524;2024-01-07T05:17:14;99881.04;;;5.08;55.21
60246;BME280;46107;53.356;-1.524;2024-01-07T05:19:41;99881.80;;;5.10;55.32
60246;BME280;46107;53.356;-1.524;2024-01-07T05:22:09;99886.98;;;5.05;56.01
60246;BME280;46107;53.356;-1.524;2024-01-07T05:24:37;99894.45;;;4.12;58.55
60246;BME280;46107;53.356;-1.524;2024-01-07T05:27:05;99896.55;;;5.56;56.39
60246;BME280;46107;53.356;-1.524;2024-01-07T05:29:32;99900.82;;;4.59;56.22
60246;BME280;46107;53.356;-1.524;2024-01-07T05:32:01;99896.75;;;5.53;54.42
60246;BME280;46107;53.356;-1.524;2024-01-07T05:34:29;99901.84;;;5.20;55.13
60246;BME280;46107;53.356;-1.524;2024-01-07T05:36:57;99909.40;;;4.40;56.25
60246;BME280;46107;53.356;-1.524;2024-01-07T05:39:26;99909.30;;;5.26;56.26
60246;BME280;46107;53.356;-1.524;2024-01-07T05:41:53;99915.68;;;4.07;57.78
60246;BME280;46107;53.356;-1.524;2024-01-07T05:44:20;99917.38;;;5.29;56.09
60246;BME280;46107;53.356;-1.524;2024-01-07T05:46:48;99919.22;;;5.02;56.58
60246;BME280;46107;53.356;-1.524;2024-01-07T05:49:16;99924.06;;;4.64;55.54
60246;BME280;46107;53.356;-1.524;2024-01-07T05:51:43;99922.69;;;4.59;57.08
60246;BME280;46107;53.356;-1.524;2024-01-07T05:54:10;99925.54;;;4.98;56.58
60246;BME280;46107;53.356;-1.524;2024-01-07T05:56:39;99927.04;;;5.51;55.63
60246;BME280;46107;53.356;-1.524;2024-01-07T05:59:07;99934.89;;;5.25;54.93
60246;BME280;46107;53.356;-1.524;2024-01-07T06:01:34;99931.76;;;5.36;54.39
60246;BME280;46107;53.356;-1.524;2024-01-07T06:04:01;99934.43;;;4.64;55.29
60246;BME280;46107;53.356;-1.524;2024-01-07T06:06:29;99934.24;;;5.44;54.23
60246;BME280;46107;53.356;-1.524;2024-01-07T06:08:56;99937.19;;;5.00;54.93
60246;BME280;46107;53.356;-1.524;2024-01-07T06:11:24;99938.47;;;5.90;53.58
60246;BME280;46107;53.356;-1.524;2024-01-07T06:13:51;99936.61;;;5.64;53.44
60246;BME280;46107;53.356;-1.524;2024-01-07T06:16:19;99938.38;;;5.06;54.07
60246;BME280;46107;53.356;-1.524;2024-01-07T06:18:46;99942.58;;;4.35;56.23
60246;BME280;46107;53.356;-1.524;2024-01-07T06:21:14;99944.17;;;3.79;57.51
60246;BME280;46107;53.356;-1.524;2024-01-07T06:23:41;99945.35;;;5.69;54.06
60246;BME280;46107;53.356;-1.524;2024-01-07T06:26:08;99954.51;;;4.27;55.08
60246;BME280;46107;53.356;-1.524;2024-01-07T06:28:36;99956.27;;;5.06;55.84
60246;BME280;46107;53.356;-1.524;2024-01-07T06:31:04;99955.64;;;5.40;53.50
60246;BME280;46107;53.356;-1.524;2024-01-07T06:33:31;99963.40;;;4.54;54.83
60246;BME280;46107;53.356;-1.524;2024-01-07T06:35:59;99964.13;;;5.30;54.16
60246;BME280;46107;53.356;-1.524;2024-01-07T06:38:26;99962.83;;;5.20;54.83
60246;BME280;46107;53.356;-1.524;2024-01-07T06:40:53;99966.49;;;5.31;54.41
60246;BME280;46107;53.356;-1.524;2024-01-07T06:43:21;99969.01;;;5.87;52.55
60246;BME280;46107;53.356;-1.524;2024-01-07T06:45:48;99977.37;;;4.78;54.96
60246;BME280;46107;53.356;-1.524;2024-01-07T06:48:16;99980.15;;;4.99;54.50
60246;BME280;46107;53.356;-1.524;2024-01-07T06:50:43;99980.36;;;6.11;52.89
60246;BME280;46107;53.356;-1.524;2024-01-07T06:53:15;99982.52;;;5.65;52.49
60246;BME280;46107;53.356;-1.524;2024-01-07T06:55:42;99986.08;;;5.48;52.78
60246;BME280;46107;53.356;-1.524;2024-01-07T06:58:09;99990.62;;;5.46;51.94
60246;BME280;46107;53.356;-1.524;2024-01-07T07:00:36;99997.36;;;5.30;54.46
60246;BME280;46107;53.356;-1.524;2024-01-07T07:03:04;99994.58;;;5.45;53.65
60246;BME280;46107;53.356;-1.524;2024-01-07T07:05:31;99999.42;;;5.69;52.83
60246;BME280;46107;53.356;-1.524;2024-01-07T07:07:59;100003.29;;;5.51;52.84
60246;BME280;46107;53.356;-1.524;2024-01-07T07:10:26;100007.20;;;5.77;51.83
60246;BME280;46107;53.356;-1.524;2024-01-07T07:12:54;100011.60;;;5.00;53.72
60246;BME280;46107;53.356;-1.524;2024-01-07T07:15:26;100010.27;;;5.57;52.96
60246;BME280;46107;53.356;-1.524;2024-01-07T07:17:53;100011.70;;;5.64;53.21
60246;BME280;46107;53.356;-1.524;2024-01-07T07:20:20;100013.71;;;5.73;53.13
60246;BME280;46107;53.356;-1.524;2024-01-07T07:22:48;100019.09;;;5.59;53.04
60246;BME280;46107;53.356;-1.524;2024-01-07T07:25:15;100022.18;;;5.45;52.59
60246;BME280;46107;53.356;-1.524;2024-01-07T07:27:42;100024.15;;;5.32;53.07
60246;BME280;46107;53.356;-1.524;2024-01-07T07:30:10;100028.12;;;5.23;54.07
60246;BME280;46107;53.356;-1.524;2024-01-07T07:32:39;100029.25;;;5.46;52.77
60246;BME280;46107;53.356;-1.524;2024-01-07T07:35:07;100032.30;;;5.57;52.69
60246;BME280;46107;53.356;-1.524;2024-01-07T07:37:35;100031.27;;;5.74;51.88
60246;BME280;46107;53.356;-1.524;2024-01-07T07:40:03;100034.74;;;5.77;52.34
60246;BME280;46107;53.356;-1.524;2024-01-07T07:42:30;100040.24;;;5.32;54.31
60246;BME280;46107;53.356;-1.524;2024-01-07T07:44:57;100046.04;;;4.67;54.52
60246;BME280;46107;53.356;-1.524;2024-01-07T07:47:25;100052.72;;;5.26;54.02
60246;BME280;46107;53.356;-1.524;2024-01-07T07:49:52;100054.93;;;5.17;54.51
60246;BME280;46107;53.356;-1.524;2024-01-07T07:52:20;100061.29;;;5.48;54.51
60246;BME280;46107;53.356;-1.524;2024-01-07T07:54:48;100067.36;;;4.73;56.17
60246;BME280;46107;53.356;-1.524;2024-01-07T07:57:15;100068.93;;;5.01;54.18
60246;BME280;46107;53.356;-1.524;2024-01-07T07:59:42;100069.71;;;4.51;56.96
60246;BME280;46107;53.356;-1.524;2024-01-07T08:02:10;100070.13;;;5.95;54.42
60246;BME280;46107;53.356;-1.524;2024-01-07T08:04:37;100073.37;;;5.19;53.72
60246;BME280;46107;53.356;-1.524;2024-01-07T08:07:05;100075.72;;;5.83;53.06
60246;BME280;46107;53.356;-1.524;2024-01-07T08:09:37;100079.89;;;5.75;52.85
60246;BME280;46107;53.356;-1.524;2024-01-07T08:12:05;100084.61;;;6.11;52.53
60246;BME280;46107;53.356;-1.524;2024-01-07T08:14:33;100092.56;;;6.10;52.12
60246;BME280;46107;53.356;-1.524;2024-01-07T08:17:05;100098.07;;;5.84;52.85
60246;BME280;46107;53.356;-1.524;2024-01-07T08:19:32;100099.34;;;5.17;54.02
60246;BME280;46107;53.356;-1.524;2024-01-07T08:22:01;100101.33;;;6.05;52.43
60246;BME280;46107;53.356;-1.524;2024-01-07T08:24:28;100102.99;;;6.19;52.06
60246;BME280;46107;53.356;-1.524;2024-01-07T08:26:56;100102.20;;;5.64;52.48
60246;BME280;46107;53.356;-1.524;2024-01-07T08:29:23;100108.91;;;5.32;52.94
60246;BME280;46107;53.356;-1.524;2024-01-07T08:31:51;100115.50;;;4.90;52.71
60246;BME280;46107;53.356;-1.524;2024-01-07T08:34:18;100123.59;;;2.98;56.76
60246;BME280;46107;53.356;-1.524;2024-01-07T08:36:51;100127.58;;;3.44;57.37
60246;BME280;46107;53.356;-1.524;2024-01-07T08:39:18;100124.27;;;5.29;53.62
60246;BME280;46107;53.356;-1.524;2024-01-07T08:41:45;100124.49;;;5.05;53.02
60246;BME280;46107;53.356;-1.524;2024-01-07T08:44:13;100125.79;;;4.55;54.19
60246;BME280;46107;53.356;-1.524;2024-01-07T08:46:40;100124.49;;;4.35;54.24
60246;BME280;46107;53.356;-1.524;2024-01-07T08:49:08;100128.72;;;4.34;55.18
60246;BME280;46107;53.356;-1.524;2024-01-07T08:51:35;100135.68;;;3.77;56.09
60246;BME280;46107;53.356;-1.524;2024-01-07T08:54:03;100128.89;;;4.38;54.41
60246;BME280;46107;53.356;-1.524;2024-01-07T08:56:30;100131.61;;;4.29;55.77
60246;BME280;46107;53.356;-1.524;2024-01-07T08:58:58;100140.35;;;3.50;56.77
60246;BME280;46107;53.356;-1.524;2024-01-07T09:01:25;100133.57;;;4.25;55.35
60246;BME280;46107;53.356;-1.524;2024-01-07T09:03:53;100133.22;;;4.88;54.93
60246;BME280;46107;53.356;-1.524;2024-01-07T09:06:20;100127.10;;;4.97;54.75
60246;BME280;46107;53.356;-1.524;2024-01-07T09:08:48;100127.59;;;4.09;56.46
60246;BME280;46107;53.356;-1.524;2024-01-07T09:11:19;100131.53;;;4.18;55.33
60246;BME280;46107;53.356;-1.524;2024-01-07T09:13:46;100139.28;;;4.50;55.24
60246;BME280;46107;53.356;-1.524;2024-01-07T09:16:13;100138.84;;;5.22;54.17
60246;BME280;46107;53.356;-1.524;2024-01-07T09:18:41;100137.27;;;5.18;54.23
60246;BME280;46107;53.356;-1.524;2024-01-07T09:21:08;100139.16;;;5.09;54.00
60246;BME280;46107;53.356;-1.524;2024-01-07T09:23:36;100141.29;;;5.14;53.62
60246;BME280;46107;53.356;-1.524;2024-01-07T09:26:03;100140.62;;;5.28;52.69
60246;BME280;46107;53.356;-1.524;2024-01-07T09:28:31;100143.94;;;5.79;51.65
60246;BME280;46107;53.356;-1.524;2024-01-07T09:30:58;100145.74;;;5.88;51.35
60246;BME280;46107;53.356;-1.524;2024-01-07T09:33:26;100148.85;;;6.03;50.86
60246;BME280;46107;53.356;-1.524;2024-01-07T09:35:53;100147.80;;;5.54;51.30
60246;BME280;46107;53.356;-1.524;2024-01-07T09:38:21;100153.83;;;4.78;53.09
60246;BME280;46107;53.356;-1.524;2024-01-07T09:40:48;100160.71;;;5.12;52.04
60246;BME280;46107;53.356;-1.524;2024-01-07T09:43:16;100164.60;;;4.62;54.16
60246;BME280;46107;53.356;-1.524;2024-01-07T09:45:47;100167.15;;;5.04;53.37
60246;BME280;46107;53.356;-1.524;2024-01-07T09:48:14;100171.31;;;5.93;51.16
60246;BME280;46107;53.356;-1.524;2024-01-07T09:50:43;100176.44;;;5.49;52.34
60246;BME280;46107;53.356;-1.524;2024-01-07T09:53:14;100178.99;;;5.77;51.05
60246;BME280;46107;53.356;-1.524;2024-01-07T09:55:51;100180.14;;;6.18;51.51
60246;BME280;46107;53.356;-1.524;2024-01-07T09:58:20;100182.19;;;6.21;51.34
60246;BME280;46107;53.356;-1.524;2024-01-07T10:00:48;100182.30;;;5.54;52.89
60246;BME280;46107;53.356;-1.524;2024-01-07T10:03:16;100184.79;;;5.25;51.87
60246;BME280;46107;53.356;-1.524;2024-01-07T10:05:44;100185.48;;;6.16;50.82
60246;BME280;46107;53.356;-1.524;2024-01-07T10:08:12;100189.56;;;5.87;51.02
60246;BME280;46107;53.356;-1.524;2024-01-07T10:10:39;100193.18;;;6.34;51.09
60246;BME280;46107;53.356;-1.524;2024-01-07T10:13:08;100195.82;;;5.96;51.32
60246;BME280;46107;53.356;-1.524;2024-01-07T10:15:35;100198.61;;;5.51;53.46
60246;BME280;46107;53.356;-1.524;2024-01-07T10:18:04;100205.59;;;4.97;54.39
60246;BME280;46107;53.356;-1.524;2024-01-07T10:20:31;100208.19;;;5.07;52.59
60246;BME280;46107;53.356;-1.524;2024-01-07T10:22:59;100207.49;;;5.89;51.00
60246;BME280;46107;53.356;-1.524;2024-01-07T10:25:26;100205.98;;;5.94;51.45
60246;BME280;46107;53.356;-1.524;2024-01-07T10:27:54;100210.95;;;5.04;52.17
60246;BME280;46107;53.356;-1.524;2024-01-07T10:30:21;100215.58;;;4.82;51.93
60246;BME280;46107;53.356;-1.524;2024-01-07T10:32:50;100213.22;;;5.58;51.71
60246;BME280;46107;53.356;-1.524;2024-01-07T10:35:22;100213.07;;;5.39;52.89
60246;BME280;46107;53.356;-1.524;2024-01-07T10:37:54;100219.34;;;5.48;51.91
60246;BME280;46107;53.356;-1.524;2024-01-07T10:40:21;100222.00;;;5.89;50.80
60246;BME280;46107;53.356;-1.524;2024-01-07T10:42:50;100228.37;;;4.32;54.32
60246;BME280;46107;53.356;-1.524;2024-01-07T10:45:18;100222.69;;;5.33;51.89
60246;BME280;46107;53.356;-1.524;2024-01-07T10:47:49;100224.60;;;5.59;52.57
60246;BME280;46107;53.356;-1.524;2024-01-07T10:50:17;100225.09;;;5.63;51.96
60246;BME280;46107;53.356;-1.524;2024-01-07T10:52:49;100226.50;;;4.88;53.12
60246;BME280;46107;53.356;-1.524;2024-01-07T10:55:18;100226.24;;;4.99;52.90
60246;BME280;46107;53.356;-1.524;2024-01-07T10:57:47;100227.25;;;4.65;52.87
60246;BME280;46107;53.356;-1.524;2024-01-07T11:00:16;100225.64;;;4.89;51.60
60246;BME280;46107;53.356;-1.524;2024-01-07T11:02:52;100229.15;;;5.76;51.07
60246;BME280;46107;53.356;-1.524;2024-01-07T11:05:28;100234.91;;;4.90;53.39
60246;BME280;46107;53.356;-1.524;2024-01-07T11:08:05;100234.35;;;4.88;52.09
60246;BME280;46107;53.356;-1.524;2024-01-07T11:10:41;100231.59;;;5.61;51.50
60246;BME280;46107;53.356;-1.524;2024-01-07T11:13:10;100231.75;;;5.08;52.09
60246;BME280;46107;53.356;-1.524;2024-01-07T11:15:53;100235.53;;;4.66;52.94
60246;BME280;46107;53.356;-1.524;2024-01-07T11:18:21;100234.15;;;5.23;52.28
60246;BME280;46107;53.356;-1.524;2024-01-07T11:20:49;100234.18;;;4.82;53.30
60246;BME280;46107;53.356;-1.524;2024-01-07T11:23:33;100239.08;;;4.42;53.32
60246;BME280;46107;53.356;-1.524;2024-01-07T11:26:05;100238.19;;;4.21;53.98
60246;BME280;46107;53.356;-1.524;2024-01-07T11:28:50;100236.35;;;5.20;53.15
60246;BME280;46107;53.356;-1.524;2024-01-07T11:31:19;100236.59;;;4.90;52.60
60246;BME280;46107;53.356;-1.524;2024-01-07T11:33:48;100238.26;;;5.44;52.87
60246;BME280;46107;53.356;-1.524;2024-01-07T11:36:17;100240.93;;;5.34;52.81
60246;BME280;46107;53.356;-1.524;2024-01-07T11:38:47;100239.26;;;5.64;52.42
60246;BME280;46107;53.356;-1.524;2024-01-07T11:41:15;100241.88;;;6.14;50.86
60246;BME280;46107;53.356;-1.524;2024-01-07T11:44:01;100246.11;;;4.66;53.96
60246;BME280;46107;53.356;-1.524;2024-01-07T11:46:29;100250.20;;;4.40;53.22
60246;BME280;46107;53.356;-1.524;2024-01-07T11:48:58;100251.82;;;4.78;53.98
60246;BME280;46107;53.356;-1.524;2024-01-07T11:51:26;100247.33;;;5.58;52.76
60246;BME280;46107;53.356;-1.524;2024-01-07T11:53:54;100248.23;;;5.14;52.85
60246;BME280;46107;53.356;-1.524;2024-01-07T11:56:22;100244.84;;;5.64;52.82
60246;BME280;46107;53.356;-1.524;2024-01-07T11:58:55;100242.76;;;5.76;52.74
60246;BME280;46107;53.356;-1.524;2024-01-07T12:01:23;100243.74;;;5.39;52.70
60246;BME280;46107;53.356;-1.524;2024-01-07T12:03:51;100250.43;;;4.48;51.79
60246;BME280;46107;53.356;-1.524;2024-01-07T12:06:19;100243.20;;;5.44;52.24
60246;BME280;46107;53.356;-1.524;2024-01-07T12:08:46;100241.47;;;5.43;52.41
60246;BME280;46107;53.356;-1.524;2024-01-07T12:11:15;100242.62;;;5.84;51.60
60246;BME280;46107;53.356;-1.524;2024-01-07T12:13:43;100244.17;;;5.17;52.77
60246;BME280;46107;53.356;-1.524;2024-01-07T12:16:10;100245.12;;;5.61;50.50
60246;BME280;46107;53.356;-1.524;2024-01-07T12:18:38;100243.43;;;5.65;49.91
60246;BME280;46107;53.356;-1.524;2024-01-07T12:21:06;100241.24;;;5.53;49.56
60246;BME280;46107;53.356;-1.524;2024-01-07T12:23:35;100246.79;;;4.90;52.37
60246;BME280;46107;53.356;-1.524;2024-01-07T12:26:08;100243.47;;;5.45;49.98
60246;BME280;46107;53.356;-1.524;2024-01-07T12:28:36;100243.01;;;5.50;50.54
60246;BME280;46107;53.356;-1.524;2024-01-07T12:31:04;100246.18;;;5.11;51.17
60246;BME280;46107;53.356;-1.524;2024-01-07T12:33:37;100244.28;;;5.64;50.44
60246;BME280;46107;53.356;-1.524;2024-01-07T12:36:05;100243.97;;;4.90;50.80
60246;BME280;46107;53.356;-1.524;2024-01-07T12:38:32;100241.44;;;5.70;51.38
60246;BME280;46107;53.356;-1.524;2024-01-07T12:41:02;100238.86;;;5.78;50.87
60246;BME280;46107;53.356;-1.524;2024-01-07T12:43:29;100236.18;;;5.32;51.58
60246;BME280;46107;53.356;-1.524;2024-01-07T12:45:56;100236.85;;;6.20;49.35
60246;BME280;46107;53.356;-1.524;2024-01-07T12:48:24;100238.83;;;6.27;49.33
60246;BME280;46107;53.356;-1.524;2024-01-07T12:50:51;100237.74;;;5.85;48.55
60246;BME280;46107;53.356;-1.524;2024-01-07T12:53:19;100237.52;;;5.33;48.29
60246;BME280;46107;53.356;-1.524;2024-01-07T12:55:46;100248.33;;;4.38;51.36
60246;BME280;46107;53.356;-1.524;2024-01-07T12:58:13;100240.92;;;5.12;50.42
60246;BME280;46107;53.356;-1.524;2024-01-07T13:00:41;100247.34;;;4.61;51.87